createdAt,value
2023-01-15T00:02:27.159Z,9.40
2023-01-15T00:04:54.678Z,9.66
2023-01-15T00:07:23.662Z,9.57
2023-01-15T00:09:51.495Z,9.49
2023-01-15T00:12:18.980Z,9.45
2023-01-15T00:14:47.185Z,9.73
2023-01-15T00:17:14.677Z,9.87
2023-01-15T00:19:42.221Z,9.89
2023-01-15T00:22:09.717Z,9.83
2023-01-15T00:24:56.004Z,9.51
2023-01-15T00:27:43.483Z,9.54
2023-01-15T00:30:13.459Z,9.22
2023-01-15T00:32:41.917Z,9.01
2023-01-15T00:35:13.663Z,8.71
2023-01-15T00:37:41.291Z,9.07
2023-01-15T00:40:12.387Z,9.04
2023-01-15T00:42:40.008Z,9.08
2023-01-15T00:45:10.243Z,9.08
2023-01-15T00:47:38.295Z,9.35
2023-01-15T00:50:07.672Z,9.19
2023-01-15T00:52:35.293Z,9.31
2023-01-15T00:55:02.978Z,9.71
2023-01-15T00:57:31.885Z,9.49
2023-01-15T00:59:59.439Z,9.25
2023-01-15T01:02:27.302Z,9.33
2023-01-15T01:04:54.870Z,9.37
2023-01-15T01:07:22.381Z,9.58
2023-01-15T01:09:49.917Z,9.00
2023-01-15T01:12:17.425Z,8.85
2023-01-15T01:14:46.278Z,9.00
2023-01-15T01:17:13.799Z,9.06
2023-01-15T01:19:41.337Z,9.23
2023-01-15T01:22:08.896Z,9.33
2023-01-15T01:24:36.468Z,9.49
2023-01-15T01:27:04.054Z,9.72
2023-01-15T01:29:31.574Z,9.59
2023-01-15T01:32:00.408Z,9.82
2023-01-15T01:34:27.953Z,9.94
2023-01-15T01:36:55.471Z,9.44
2023-01-15T01:39:22.966Z,9.24
2023-01-15T01:41:50.475Z,9.33
2023-01-15T01:44:55.442Z,9.46
2023-01-15T01:47:27.674Z,9.24
2023-01-15T01:50:00.165Z,9.13
2023-01-15T01:52:31.448Z,9.39
2023-01-15T01:54:59.622Z,9.66
2023-01-15T01:57:27.335Z,9.49
2023-01-15T01:59:56.531Z,9.22
2023-01-15T02:02:25.698Z,9.61
2023-01-15T02:04:53.659Z,9.75
2023-01-15T02:07:21.171Z,9.61
2023-01-15T02:09:48.667Z,9.35
2023-01-15T02:12:23.094Z,9.00
2023-01-15T02:14:59.962Z,8.87
2023-01-15T02:17:35.158Z,8.68
2023-01-15T02:20:20.711Z,8.51
2023-01-15T02:22:59.316Z,8.32
2023-01-15T02:25:33.071Z,8.10
2023-01-15T02:28:09.616Z,8.21
2023-01-15T02:30:43.311Z,8.34
2023-01-15T02:33:17.431Z,8.35
2023-01-15T02:35:48.816Z,8.24
2023-01-15T02:38:22.230Z,8.15
2023-01-15T02:40:53.632Z,8.25
2023-01-15T02:43:24.811Z,8.20
2023-01-15T02:45:55.859Z,8.01
2023-01-15T02:48:27.443Z,8.07
2023-01-15T02:50:58.365Z,7.78
2023-01-15T02:53:29.891Z,7.86
2023-01-15T02:56:03.190Z,7.74
2023-01-15T02:58:35.679Z,7.59
2023-01-15T03:01:10.745Z,7.52
2023-01-15T03:03:43.696Z,7.42
2023-01-15T03:06:17.676Z,7.68
2023-01-15T03:08:45.216Z,7.59
2023-01-15T03:11:14.879Z,7.76
2023-01-15T03:13:48.941Z,7.69
2023-01-15T03:16:38.973Z,8.14
2023-01-15T03:19:13.484Z,7.94
2023-01-15T03:21:48.094Z,8.28
2023-01-15T03:24:22.321Z,8.21
2023-01-15T03:26:49.872Z,8.27
2023-01-15T03:29:20.175Z,8.18
2023-01-15T03:31:49.828Z,8.11
2023-01-15T03:34:17.363Z,8.00
2023-01-15T03:36:45.062Z,8.12
2023-01-15T03:39:12.675Z,8.37
2023-01-15T03:41:50.967Z,8.21
2023-01-15T03:44:29.965Z,8.50
2023-01-15T03:47:14.182Z,8.29
2023-01-15T03:49:52.698Z,8.20
2023-01-15T03:52:26.005Z,8.20
2023-01-15T03:55:01.689Z,8.20
2023-01-15T03:57:35.444Z,8.15
2023-01-15T04:00:10.962Z,8.26
2023-01-15T04:02:39.304Z,8.31
2023-01-15T04:05:07.737Z,8.45
2023-01-15T04:07:36.270Z,8.14
2023-01-15T04:10:04.923Z,8.28
2023-01-15T04:12:33.971Z,8.15
2023-01-15T04:15:01.561Z,8.18
2023-01-15T04:17:30.395Z,8.42
2023-01-15T04:19:57.902Z,8.13
2023-01-15T04:22:25.387Z,8.11
2023-01-15T04:24:54.936Z,8.24
2023-01-15T04:27:22.766Z,8.17
2023-01-15T04:29:50.357Z,8.15
2023-01-15T04:32:17.847Z,8.17
2023-01-15T04:34:46.690Z,8.25
2023-01-15T04:37:15.524Z,8.15
2023-01-15T04:39:42.996Z,8.28
2023-01-15T04:42:30.741Z,8.25
2023-01-15T04:44:58.250Z,8.28
2023-01-15T04:47:25.823Z,8.49
2023-01-15T04:49:54.631Z,8.33
2023-01-15T04:52:22.115Z,8.42
2023-01-15T04:54:49.591Z,8.35
2023-01-15T04:57:17.128Z,8.28
2023-01-15T04:59:44.645Z,8.31
2023-01-15T05:02:14.975Z,8.51
2023-01-15T05:04:42.797Z,8.34
2023-01-15T05:07:11.679Z,8.46
2023-01-15T05:09:39.231Z,8.46
2023-01-15T05:12:07.300Z,8.53
2023-01-15T05:14:34.802Z,8.49
2023-01-15T05:17:02.351Z,8.64
2023-01-15T05:19:29.825Z,8.55
2023-01-15T05:21:57.329Z,8.52
2023-01-15T05:24:26.147Z,8.72
2023-01-15T05:26:53.697Z,8.66
2023-01-15T05:29:21.179Z,8.57
2023-01-15T05:31:48.681Z,8.48
2023-01-15T05:34:16.618Z,8.54
2023-01-15T05:36:44.111Z,8.46
2023-01-15T05:39:11.622Z,8.41
2023-01-15T05:41:53.514Z,8.53
2023-01-15T05:44:23.772Z,8.40
2023-01-15T05:46:52.511Z,8.53
2023-01-15T05:49:22.697Z,8.35
2023-01-15T05:51:51.121Z,8.13
2023-01-15T05:54:21.735Z,7.94
2023-01-15T05:56:50.932Z,7.84
2023-01-15T05:59:19.818Z,7.87
2023-01-15T06:01:47.538Z,8.03
2023-01-15T06:04:15.769Z,8.08
2023-01-15T06:06:44.575Z,8.29
2023-01-15T06:09:12.267Z,8.20
2023-01-15T06:11:40.476Z,8.18
2023-01-15T06:14:09.495Z,8.31
2023-01-15T06:16:37.141Z,8.18
2023-01-15T06:19:06.553Z,8.27
2023-01-15T06:21:35.910Z,8.25
2023-01-15T06:24:03.783Z,8.21
2023-01-15T06:26:31.255Z,7.96
2023-01-15T06:28:58.885Z,7.85
2023-01-15T06:31:27.916Z,7.74
2023-01-15T06:33:56.083Z,7.60
2023-01-15T06:36:24.801Z,7.54
2023-01-15T06:38:52.352Z,7.60
2023-01-15T06:41:39.431Z,7.65
2023-01-15T06:44:24.761Z,7.45
2023-01-15T06:47:11.210Z,7.47
2023-01-15T06:49:39.584Z,7.58
2023-01-15T06:52:07.834Z,7.54
2023-01-15T06:54:35.937Z,7.81
2023-01-15T06:57:04.090Z,7.84
2023-01-15T06:59:32.171Z,7.76
2023-01-15T07:02:01.908Z,7.90
2023-01-15T07:04:29.454Z,8.01
2023-01-15T07:06:57.462Z,8.41
2023-01-15T07:09:25.317Z,8.33
2023-01-15T07:11:52.782Z,8.27
2023-01-15T07:14:21.929Z,7.86
2023-01-15T07:16:49.902Z,7.78
2023-01-15T07:19:19.623Z,7.65
2023-01-15T07:21:47.761Z,7.72
2023-01-15T07:24:15.571Z,7.68
2023-01-15T07:26:43.794Z,7.79
2023-01-15T07:29:11.275Z,7.66
2023-01-15T07:31:40.718Z,7.47
2023-01-15T07:34:08.748Z,7.48
2023-01-15T07:36:38.310Z,7.34
2023-01-15T07:39:06.293Z,7.37
2023-01-15T07:41:51.507Z,7.42
2023-01-15T07:44:36.968Z,7.52
2023-01-15T07:47:27.551Z,7.75
2023-01-15T07:49:55.655Z,7.96
2023-01-15T07:52:24.465Z,8.03
2023-01-15T07:54:52.141Z,8.33
2023-01-15T07:57:22.199Z,8.34
2023-01-15T07:59:50.186Z,8.09
2023-01-15T08:02:18.005Z,7.98
2023-01-15T08:04:47.441Z,8.12
2023-01-15T08:07:15.657Z,8.11
2023-01-15T08:09:44.512Z,8.32
2023-01-15T08:12:30.318Z,8.44
2023-01-15T08:15:16.580Z,9.31
2023-01-15T08:17:45.976Z,10.04
2023-01-15T08:20:16.059Z,10.60
2023-01-15T08:22:44.353Z,10.83
2023-01-15T08:25:14.808Z,11.08
2023-01-15T08:27:43.333Z,11.13
2023-01-15T08:30:13.601Z,11.26
2023-01-15T08:32:41.293Z,11.18
2023-01-15T08:35:09.522Z,11.04
2023-01-15T08:37:37.699Z,11.29
2023-01-15T08:40:05.971Z,11.34
2023-01-15T08:42:34.958Z,11.42
2023-01-15T08:45:02.516Z,11.25
2023-01-15T08:47:31.869Z,11.45
2023-01-15T08:49:59.348Z,11.14
2023-01-15T08:52:26.863Z,11.05
2023-01-15T08:54:54.380Z,11.19
2023-01-15T08:57:21.911Z,11.14
2023-01-15T08:59:50.714Z,11.04
2023-01-15T09:02:18.593Z,10.75
2023-01-15T09:04:46.127Z,10.24
2023-01-15T09:07:13.739Z,9.72
2023-01-15T09:09:41.225Z,9.32
2023-01-15T09:12:08.993Z,9.29
2023-01-15T09:14:58.015Z,9.26
2023-01-15T09:17:25.483Z,9.10
2023-01-15T09:19:52.989Z,8.84
2023-01-15T09:22:20.667Z,8.62
2023-01-15T09:24:48.211Z,8.35
2023-01-15T09:27:15.850Z,8.31
2023-01-15T09:29:43.344Z,8.19
2023-01-15T09:32:10.890Z,7.70
2023-01-15T09:34:39.697Z,7.57
2023-01-15T09:37:07.199Z,7.52
2023-01-15T09:39:34.837Z,7.58
2023-01-15T09:42:16.155Z,7.55
2023-01-15T09:45:04.054Z,7.38
2023-01-15T09:47:36.103Z,7.28
2023-01-15T09:50:25.000Z,7.42
2023-01-15T09:53:12.830Z,7.26
2023-01-15T09:55:45.618Z,7.16
2023-01-15T09:58:16.998Z,7.16
2023-01-15T10:00:46.848Z,7.05
2023-01-15T10:03:26.256Z,7.07
2023-01-15T10:06:02.809Z,7.03
2023-01-15T10:08:34.526Z,7.38
2023-01-15T10:11:05.992Z,7.25
2023-01-15T10:13:42.476Z,7.02
2023-01-15T10:16:11.919Z,7.01
2023-01-15T10:18:42.592Z,6.88
2023-01-15T10:21:25.836Z,6.62
2023-01-15T10:24:03.471Z,6.75
2023-01-15T10:26:36.648Z,6.94
2023-01-15T10:29:11.874Z,7.10
2023-01-15T10:31:53.962Z,7.10
2023-01-15T10:35:05.103Z,7.07
2023-01-15T10:37:41.909Z,6.82
2023-01-15T10:40:35.622Z,6.71
2023-01-15T10:43:11.449Z,6.61
2023-01-15T10:45:43.573Z,6.60
2023-01-15T10:48:14.831Z,6.50
2023-01-15T10:50:43.328Z,6.32
2023-01-15T10:53:30.504Z,6.34
2023-01-15T10:56:03.897Z,6.25
2023-01-15T10:58:38.135Z,6.28
2023-01-15T11:01:10.806Z,6.25
2023-01-15T11:03:40.403Z,6.20
2023-01-15T11:06:15.949Z,6.59
2023-01-15T11:09:08.708Z,6.63
2023-01-15T11:11:56.765Z,6.36
2023-01-15T11:14:51.675Z,6.30
2023-01-15T11:17:37.772Z,6.19
2023-01-15T11:20:13.508Z,6.02
2023-01-15T11:22:41.374Z,5.99
2023-01-15T11:25:12.013Z,5.97
2023-01-15T11:27:40.408Z,6.28
2023-01-15T11:30:25.947Z,5.81
2023-01-15T11:32:57.462Z,5.86
2023-01-15T11:35:25.064Z,5.78
2023-01-15T11:38:03.285Z,5.77
2023-01-15T11:40:34.614Z,5.65
2023-01-15T11:43:19.880Z,5.85
2023-01-15T11:46:05.500Z,5.77
2023-01-15T11:48:53.865Z,5.71
2023-01-15T11:51:21.366Z,5.67
2023-01-15T11:53:52.517Z,5.59
2023-01-15T11:56:24.205Z,5.44
2023-01-15T11:58:55.054Z,5.50
2023-01-15T12:01:26.564Z,5.56
2023-01-15T12:03:54.571Z,5.63
2023-01-15T12:06:23.426Z,5.91
2023-01-15T12:08:53.202Z,6.00
2023-01-15T12:11:32.910Z,6.04
2023-01-15T12:14:17.140Z,6.43
2023-01-15T12:16:52.977Z,6.50
2023-01-15T12:19:28.829Z,6.70
2023-01-15T12:22:08.788Z,6.88
2023-01-15T12:24:45.736Z,6.75
2023-01-15T12:27:41.171Z,6.61
2023-01-15T12:30:20.695Z,6.09
2023-01-15T12:32:53.949Z,5.96
2023-01-15T12:35:29.405Z,5.76
2023-01-15T12:38:02.416Z,5.97
2023-01-15T12:40:40.447Z,5.84
2023-01-15T12:43:42.622Z,5.95
2023-01-15T12:46:15.911Z,6.22
2023-01-15T12:48:51.623Z,6.03
2023-01-15T12:51:26.330Z,5.88
2023-01-15T12:53:58.557Z,5.75
2023-01-15T12:56:30.268Z,5.86
2023-01-15T12:59:06.043Z,5.83
2023-01-15T13:01:44.491Z,5.97
2023-01-15T13:04:18.092Z,5.95
2023-01-15T13:06:50.006Z,5.64
2023-01-15T13:09:30.281Z,5.59
2023-01-15T13:11:58.379Z,5.64
2023-01-15T13:14:27.244Z,5.68
2023-01-15T13:17:01.654Z,5.64
2023-01-15T13:19:38.349Z,5.51
2023-01-15T13:22:14.694Z,5.50
2023-01-15T13:24:56.888Z,5.54
2023-01-15T13:27:36.039Z,5.52
2023-01-15T13:30:20.096Z,5.57
2023-01-15T13:32:50.213Z,5.43
2023-01-15T13:35:28.343Z,5.63
2023-01-15T13:37:58.960Z,5.40
2023-01-15T13:40:30.273Z,5.58
2023-01-15T13:42:58.137Z,5.40
2023-01-15T13:45:37.031Z,5.43
2023-01-15T13:48:08.418Z,5.23
2023-01-15T13:50:38.388Z,5.19
2023-01-15T13:53:15.909Z,5.07
2023-01-15T13:55:50.805Z,5.17
2023-01-15T13:58:22.357Z,5.27
2023-01-15T14:01:02.802Z,5.21
2023-01-15T14:03:32.633Z,5.27
2023-01-15T14:06:01.765Z,5.12
2023-01-15T14:08:37.652Z,5.11
2023-01-15T14:11:05.554Z,5.08
2023-01-15T14:14:07.969Z,4.91
2023-01-15T14:16:51.116Z,4.78
2023-01-15T14:19:34.958Z,4.68
2023-01-15T14:22:33.317Z,4.84
2023-01-15T14:25:26.781Z,4.70
2023-01-15T14:28:07.199Z,4.54
2023-01-15T14:31:23.147Z,4.48
2023-01-15T14:34:05.809Z,4.49
2023-01-15T14:36:39.741Z,4.95
2023-01-15T14:39:23.370Z,4.60
2023-01-15T14:42:16.137Z,4.81
2023-01-15T14:44:45.511Z,4.98
2023-01-15T14:47:25.983Z,4.40
2023-01-15T14:50:04.078Z,4.74
2023-01-15T14:52:32.351Z,4.60
2023-01-15T14:55:01.108Z,4.69
2023-01-15T14:57:29.012Z,4.70
2023-01-15T15:00:00.766Z,4.92
2023-01-15T15:02:36.039Z,4.90
2023-01-15T15:05:09.003Z,4.97
2023-01-15T15:07:41.794Z,4.72
2023-01-15T15:10:18.921Z,4.64
2023-01-15T15:12:50.668Z,4.79
2023-01-15T15:15:23.931Z,4.71
2023-01-15T15:18:00.719Z,4.66
2023-01-15T15:20:39.452Z,4.89
2023-01-15T15:23:15.078Z,4.36
2023-01-15T15:25:43.290Z,4.24
2023-01-15T15:28:12.282Z,4.16
2023-01-15T15:30:44.932Z,4.19
2023-01-15T15:33:18.250Z,4.22
2023-01-15T15:35:50.198Z,4.08
2023-01-15T15:38:20.751Z,4.13
2023-01-15T15:40:52.231Z,4.12
2023-01-15T15:43:43.518Z,3.97
2023-01-15T15:46:42.717Z,3.98
2023-01-15T15:49:10.805Z,4.17
2023-01-15T15:51:45.580Z,3.82
2023-01-15T15:54:16.906Z,3.94
2023-01-15T15:56:49.089Z,3.95
2023-01-15T15:59:25.428Z,4.16
2023-01-15T16:01:53.138Z,3.95
2023-01-15T16:04:21.384Z,3.79
2023-01-15T16:06:50.209Z,3.72
2023-01-15T16:09:22.176Z,3.86
2023-01-15T16:11:52.029Z,3.71
2023-01-15T16:14:21.681Z,3.64
2023-01-15T16:16:50.843Z,3.80
2023-01-15T16:19:23.388Z,3.73
2023-01-15T16:21:53.109Z,3.77
2023-01-15T16:24:25.069Z,3.72
2023-01-15T16:26:59.541Z,3.56
2023-01-15T16:29:29.760Z,3.50
2023-01-15T16:31:59.696Z,3.57
2023-01-15T16:34:30.504Z,3.55
2023-01-15T16:37:00.882Z,3.70
2023-01-15T16:39:31.467Z,3.66
2023-01-15T16:42:02.313Z,3.87
2023-01-15T16:44:40.740Z,3.93
2023-01-15T16:47:08.270Z,4.25
2023-01-15T16:49:35.840Z,4.11
2023-01-15T16:52:35.951Z,3.84
2023-01-15T16:55:03.462Z,4.35
2023-01-15T16:57:34.547Z,4.15
2023-01-15T17:00:07.944Z,4.32
2023-01-15T17:02:44.129Z,4.27
2023-01-15T17:05:16.708Z,4.57
2023-01-15T17:07:49.352Z,4.17
2023-01-15T17:10:26.046Z,4.30
2023-01-15T17:12:56.900Z,4.09
2023-01-15T17:15:45.338Z,3.77
2023-01-15T17:18:22.780Z,4.15
2023-01-15T17:20:50.285Z,4.19
2023-01-15T17:23:23.595Z,4.08
2023-01-15T17:25:51.322Z,4.46
2023-01-15T17:28:19.146Z,4.00
2023-01-15T17:30:48.357Z,4.01
2023-01-15T17:33:16.080Z,4.10
2023-01-15T17:35:45.774Z,4.04
2023-01-15T17:38:13.844Z,3.89
2023-01-15T17:40:43.283Z,3.76
2023-01-15T17:43:13.539Z,3.82
2023-01-15T17:45:41.685Z,3.82
2023-01-15T17:48:09.853Z,3.91
2023-01-15T17:50:38.045Z,3.99
2023-01-15T17:53:06.518Z,3.58
2023-01-15T17:55:51.889Z,3.49
2023-01-15T17:58:38.587Z,3.78
2023-01-15T18:01:31.419Z,4.09
2023-01-15T18:04:16.402Z,4.46
2023-01-15T18:06:49.298Z,4.40
2023-01-15T18:09:18.232Z,4.23
2023-01-15T18:11:45.931Z,4.07
2023-01-15T18:14:14.860Z,3.87
2023-01-15T18:16:42.334Z,3.84
2023-01-15T18:19:09.880Z,4.20
2023-01-15T18:21:41.299Z,4.43
2023-01-15T18:24:11.670Z,4.39
2023-01-15T18:26:41.251Z,4.01
2023-01-15T18:29:10.516Z,4.18
2023-01-15T18:31:39.829Z,3.99
2023-01-15T18:34:07.623Z,3.92
2023-01-15T18:36:35.176Z,3.79
2023-01-15T18:39:06.229Z,3.34
2023-01-15T18:41:52.976Z,3.49
2023-01-15T18:44:39.834Z,3.34
2023-01-15T18:47:12.241Z,3.48
2023-01-15T18:49:41.144Z,3.85
2023-01-15T18:52:26.215Z,3.33
2023-01-15T18:54:54.569Z,3.37
2023-01-15T18:57:22.369Z,3.12
2023-01-15T18:59:49.950Z,3.09
2023-01-15T19:02:20.355Z,3.24
2023-01-15T19:04:48.853Z,3.42
2023-01-15T19:07:16.789Z,3.65
2023-01-15T19:09:44.308Z,3.58
2023-01-15T19:12:13.635Z,3.29
2023-01-15T19:15:01.039Z,3.43
2023-01-15T19:17:47.727Z,3.55
2023-01-15T19:20:18.175Z,3.64
2023-01-15T19:23:04.164Z,3.69
2023-01-15T19:25:37.366Z,3.61
2023-01-15T19:28:05.589Z,3.79
2023-01-15T19:30:33.873Z,3.88
2023-01-15T19:33:02.733Z,3.86
2023-01-15T19:35:30.542Z,3.99
2023-01-15T19:37:58.814Z,3.95
2023-01-15T19:40:27.082Z,3.89
2023-01-15T19:43:12.826Z,3.89
2023-01-15T19:46:00.338Z,3.87
2023-01-15T19:48:47.046Z,3.70
2023-01-15T19:51:14.751Z,3.85
2023-01-15T19:53:42.261Z,3.90
2023-01-15T19:56:09.775Z,4.30
2023-01-15T19:58:37.843Z,4.12
2023-01-15T20:01:05.907Z,3.82
2023-01-15T20:03:34.778Z,3.71
2023-01-15T20:06:02.278Z,4.02
2023-01-15T20:08:32.013Z,4.36
2023-01-15T20:10:59.514Z,4.04
2023-01-15T20:13:44.286Z,4.12
2023-01-15T20:16:14.048Z,3.97
2023-01-15T20:18:42.868Z,4.04
2023-01-15T20:21:14.293Z,3.84
2023-01-15T20:23:42.450Z,4.09
2023-01-15T20:26:12.392Z,3.77
2023-01-15T20:28:41.809Z,3.88
2023-01-15T20:31:15.692Z,3.64
2023-01-15T20:33:44.593Z,3.29
2023-01-15T20:36:12.085Z,3.11
2023-01-15T20:38:39.616Z,3.17
2023-01-15T20:41:21.946Z,3.18
2023-01-15T20:44:06.996Z,3.30
2023-01-15T20:46:34.498Z,3.18
2023-01-15T20:49:21.009Z,3.08
2023-01-15T20:51:48.474Z,3.37
2023-01-15T20:54:16.019Z,3.52
2023-01-15T20:56:43.588Z,3.65
2023-01-15T20:59:11.133Z,3.18
2023-01-15T21:01:40.421Z,3.23
2023-01-15T21:04:10.582Z,2.87
2023-01-15T21:06:38.152Z,3.17
2023-01-15T21:09:05.998Z,3.20
2023-01-15T21:11:33.650Z,2.96
2023-01-15T21:14:01.179Z,3.08
2023-01-15T21:16:28.734Z,2.99
2023-01-15T21:18:56.331Z,3.02
2023-01-15T21:21:25.291Z,3.12
2023-01-15T21:23:52.754Z,3.19
2023-01-15T21:26:20.290Z,3.05
2023-01-15T21:28:47.955Z,3.32
2023-01-15T21:31:15.819Z,2.60
2023-01-15T21:33:43.391Z,2.78
2023-01-15T21:36:13.308Z,3.20
2023-01-15T21:38:42.183Z,3.62
2023-01-15T21:41:11.614Z,3.03
2023-01-15T21:43:56.802Z,3.10
2023-01-15T21:46:27.515Z,3.21
2023-01-15T21:48:55.063Z,3.31
2023-01-15T21:51:22.577Z,3.20
2023-01-15T21:53:51.666Z,2.74
2023-01-15T21:56:19.170Z,3.15
2023-01-15T21:58:46.656Z,3.44
2023-01-15T22:01:17.996Z,3.11
2023-01-15T22:03:45.925Z,3.62
2023-01-15T22:06:13.535Z,3.86
2023-01-15T22:08:41.169Z,3.31
2023-01-15T22:11:11.254Z,3.31
2023-01-15T22:13:40.634Z,3.51
2023-01-15T22:16:08.871Z,3.31
2023-01-15T22:18:36.387Z,3.31
2023-01-15T22:21:06.571Z,3.20
2023-01-15T22:23:34.842Z,3.03
2023-01-15T22:26:02.712Z,3.51
2023-01-15T22:28:31.587Z,3.75
2023-01-15T22:30:59.130Z,3.77
2023-01-15T22:33:26.674Z,3.57
2023-01-15T22:35:58.318Z,3.21
2023-01-15T22:38:26.108Z,2.87
2023-01-15T22:40:53.614Z,3.16
2023-01-15T22:43:21.289Z,3.29
2023-01-15T22:45:50.216Z,3.09
2023-01-15T22:48:17.815Z,3.49
2023-01-15T22:50:45.291Z,3.52
2023-01-15T22:53:12.778Z,3.34
2023-01-15T22:55:40.285Z,3.21
2023-01-15T22:58:07.952Z,3.34
2023-01-15T23:00:35.451Z,3.47
2023-01-15T23:03:05.928Z,3.14
2023-01-15T23:05:38.796Z,3.56
2023-01-15T23:08:07.023Z,3.67
2023-01-15T23:10:34.700Z,3.64
2023-01-15T23:13:02.217Z,3.03
2023-01-15T23:15:29.825Z,2.93
2023-01-15T23:17:57.407Z,3.07
2023-01-15T23:20:26.231Z,2.96
2023-01-15T23:22:53.774Z,3.15
2023-01-15T23:25:21.330Z,3.34
2023-01-15T23:27:48.866Z,2.93
2023-01-15T23:30:16.754Z,2.97
2023-01-15T23:32:44.315Z,2.94
2023-01-15T23:35:11.819Z,2.77
2023-01-15T23:37:40.634Z,3.06
2023-01-15T23:40:09.863Z,2.92
2023-01-15T23:42:55.268Z,3.00
2023-01-15T23:45:40.293Z,2.58
2023-01-15T23:48:07.779Z,2.91
2023-01-15T23:50:35.366Z,3.24
2023-01-15T23:53:04.226Z,3.42
2023-01-15T23:55:32.064Z,3.61
2023-01-15T23:57:59.593Z,3.72
